Time;durP1;ratioP1;P1;durP2;ratioP2;P2;SDS_P1;SDS_P2;PMS_P1;PMS_P2;Temp;Humidity;BMP_temperature;BMP_pressure;BME280_temperature;BME280_humidity;BME280_pressure;Samples;Min_cycle;Max_cycle;Signal;HPM_P1;HPM_P2
2022/04/06 00:01:01;;;;;;;11.27;10.13;;;8.80;99.90;;;;;;5027963;28;20266;-71
2022/04/06 00:03:27;;;;;;;11.23;10.13;;;8.80;99.90;;;;;;5028258;28;20212;-71
2022/04/06 00:05:54;;;;;;;10.50;9.60;;;8.80;99.90;;;;;;5027501;28;20664;-71
2022/04/06 00:08:21;;;;;;;10.57;9.60;;;8.80;99.90;;;;;;5028308;28;20217;-71
2022/04/06 00:10:47;;;;;;;9.50;8.77;;;8.90;99.90;;;;;;5028165;28;20205;-72
2022/04/06 00:13:15;;;;;;;9.20;8.40;;;8.80;99.90;;;;;;5028281;28;20280;-72
2022/04/06 00:15:42;;;;;;;9.93;9.13;;;8.90;99.90;;;;;;5028026;28;20259;-71
2022/04/06 00:18:09;;;;;;;10.47;9.47;;;8.90;99.90;;;;;;5037927;28;20212;-71
2022/04/06 00:20:36;;;;;;;8.87;8.07;;;8.90;99.90;;;;;;5028013;28;20772;-71
2022/04/06 00:23:03;;;;;;;10.23;9.40;;;8.90;99.90;;;;;;5025201;28;20782;-71
2022/04/06 00:25:29;;;;;;;10.10;9.20;;;8.90;99.90;;;;;;5030535;28;20204;-71
2022/04/06 00:27:56;;;;;;;11.10;10.00;;;8.80;99.90;;;;;;5031725;28;20278;-71
2022/04/06 00:30:24;;;;;;;11.00;9.97;;;8.90;99.90;;;;;;5031741;28;20212;-71
2022/04/06 00:32:51;;;;;;;10.73;9.77;;;8.80;99.90;;;;;;5031669;28;20200;-71
2022/04/06 00:35:31;;;;;;;12.33;10.20;;;8.80;99.90;;;;;;5031875;28;20282;-71
2022/04/06 00:37:58;;;;;;;12.37;11.23;;;8.80;99.90;;;;;;5031952;28;20205;-71
2022/04/06 00:40:25;;;;;;;13.20;12.00;;;8.80;99.90;;;;;;5031879;28;20212;-71
2022/04/06 00:42:53;;;;;;;12.90;11.60;;;8.80;99.90;;;;;;5031210;28;20577;-69
2022/04/06 00:45:20;;;;;;;13.60;12.23;;;8.90;99.90;;;;;;5031655;28;20632;-69
2022/04/06 00:47:48;;;;;;;12.70;11.50;;;8.90;99.90;;;;;;5031393;28;20225;-69
2022/04/06 00:50:15;;;;;;;13.50;12.20;;;8.90;99.90;;;;;;5031425;28;20246;-69
2022/04/06 00:52:42;;;;;;;13.43;12.13;;;8.90;99.90;;;;;;5027822;28;20274;-70
2022/04/06 00:55:12;;;;;;;12.13;11.03;;;8.90;99.90;;;;;;5031418;28;20212;-69
2022/04/06 00:57:39;;;;;;;12.97;11.67;;;8.90;99.90;;;;;;5031522;28;20231;-69
2022/04/06 01:00:08;;;;;;;12.50;11.20;;;8.90;99.90;;;;;;5030572;28;20937;-72
2022/04/06 01:02:35;;;;;;;13.57;12.17;;;8.90;99.90;;;;;;5031454;28;20213;-72
2022/04/06 01:05:04;;;;;;;12.80;11.50;;;8.90;99.90;;;;;;5031082;28;20680;-72
2022/04/06 01:07:31;;;;;;;12.97;11.67;;;8.90;99.90;;;;;;5031619;28;20278;-71
2022/04/06 01:09:57;;;;;;;13.60;12.30;;;8.90;99.90;;;;;;5031423;28;20258;-71
2022/04/06 01:12:25;;;;;;;11.97;10.87;;;8.90;99.90;;;;;;5031060;28;20769;-71
2022/04/06 01:14:52;;;;;;;13.73;12.33;;;8.90;99.90;;;;;;5030874;28;20243;-72
2022/04/06 01:17:18;;;;;;;12.37;11.17;;;8.90;99.90;;;;;;5031033;28;20240;-72
2022/04/06 01:19:47;;;;;;;13.77;11.33;;;8.90;99.90;;;;;;5030746;28;20236;-72
2022/04/06 01:22:17;;;;;;;12.27;11.17;;;8.80;99.90;;;;;;5031032;28;20205;-72
2022/04/06 01:24:45;;;;;;;12.57;11.27;;;8.80;99.90;;;;;;5017352;28;20279;-72
2022/04/06 01:27:12;;;;;;;12.27;11.13;;;8.90;99.90;;;;;;5030933;28;20649;-72
2022/04/06 01:29:40;;;;;;;13.60;12.30;;;8.80;99.90;;;;;;5030714;28;20208;-72
2022/04/06 01:32:11;;;;;;;12.10;11.00;;;8.80;99.90;;;;;;5030469;28;20236;-72
2022/04/06 01:34:39;;;;;;;12.90;11.67;;;8.90;99.90;;;;;;5030715;28;20262;-72
2022/04/06 01:37:07;;;;;;;12.40;11.27;;;8.90;99.90;;;;;;5030680;28;20811;-72
2022/04/06 01:39:36;;;;;;;13.00;11.80;;;8.90;99.90;;;;;;5030420;28;20683;-72
2022/04/06 01:42:03;;;;;;;12.57;11.43;;;8.90;99.90;;;;;;5030664;28;20665;-72
2022/04/06 01:44:32;;;;;;;13.33;12.07;;;8.90;99.90;;;;;;5030796;28;20255;-72
2022/04/06 01:46:59;;;;;;;13.53;12.23;;;8.90;99.90;;;;;;5030094;28;20611;-72
2022/04/06 01:52:13;;;;;;;13.57;12.30;;;8.90;99.90;;;;;;5027723;28;20204;-71
2022/04/06 01:54:42;;;;;;;13.10;11.83;;;8.90;99.90;;;;;;5029334;28;20205;-71
2022/04/06 01:57:08;;;;;;;14.30;12.83;;;8.90;99.90;;;;;;5029911;28;20698;-71
2022/04/06 01:59:35;;;;;;;12.73;11.53;;;8.90;99.90;;;;;;5029910;28;20205;-71
2022/04/06 02:02:05;;;;;;;14.63;13.23;;;8.90;99.90;;;;;;5030378;28;20259;-71
2022/04/06 02:04:31;;;;;;;13.77;12.40;;;8.90;99.90;;;;;;5030372;28;20208;-71
2022/04/06 02:06:58;;;;;;;13.70;12.30;;;9.00;99.90;;;;;;5029802;28;20229;-71
2022/04/06 02:09:25;;;;;;;13.10;11.80;;;9.00;99.90;;;;;;5030059;28;20212;-71
2022/04/06 02:11:53;;;;;;;13.70;12.30;;;9.00;99.90;;;;;;5029853;28;20656;-71
2022/04/06 02:14:20;;;;;;;13.40;11.93;;;8.90;99.90;;;;;;5029911;28;20262;-71
2022/04/06 02:16:47;;;;;;;14.00;12.50;;;9.00;99.90;;;;;;5029796;28;20773;-71
2022/04/06 02:19:13;;;;;;;13.27;12.07;;;9.00;99.90;;;;;;5034659;28;20411;-71
2022/04/06 02:21:40;;;;;;;13.50;12.13;;;9.00;99.90;;;;;;5030833;28;20209;-72
2022/04/06 02:24:07;;;;;;;13.30;12.10;;;8.90;99.90;;;;;;5029501;28;20671;-71
2022/04/06 02:26:34;;;;;;;14.20;12.80;;;8.90;99.90;;;;;;5029468;28;20637;-71
2022/04/06 02:29:02;;;;;;;13.77;12.47;;;8.90;99.90;;;;;;5029474;28;20208;-72
2022/04/06 02:31:29;;;;;;;14.47;13.03;;;8.90;99.90;;;;;;5029925;28;20209;-72
2022/04/06 02:33:56;;;;;;;13.90;12.60;;;9.00;99.90;;;;;;5029696;28;20291;-72
2022/04/06 02:36:22;;;;;;;13.73;12.33;;;9.00;99.90;;;;;;5029882;28;20213;-72
2022/04/06 02:38:49;;;;;;;13.67;12.27;;;8.90;99.90;;;;;;5029632;28;20201;-72
2022/04/06 02:41:16;;;;;;;14.07;12.77;;;8.90;99.90;;;;;;5029401;28;20212;-72
2022/04/06 02:43:43;;;;;;;13.40;12.10;;;9.00;99.90;;;;;;5029103;28;20666;-70
2022/04/06 02:46:11;;;;;;;12.53;11.43;;;9.00;99.90;;;;;;5028680;28;20258;-69
2022/04/06 02:48:37;;;;;;;13.37;12.07;;;8.90;99.90;;;;;;5029405;28;20233;-69
2022/04/06 02:51:07;;;;;;;14.10;12.70;;;9.00;99.90;;;;;;5029356;28;20216;-72
2022/04/06 02:53:33;;;;;;;14.80;13.37;;;9.00;99.90;;;;;;5025322;28;20216;-73
2022/04/06 02:56:00;;;;;;;13.83;12.50;;;9.00;99.90;;;;;;5029134;28;20240;-72
2022/04/06 02:58:27;;;;;;;13.40;12.07;;;9.00;99.90;;;;;;5029373;28;20255;-72
2022/04/06 03:00:54;;;;;;;12.87;11.67;;;9.00;99.90;;;;;;5029001;28;20255;-72
2022/04/06 03:03:22;;;;;;;13.57;12.27;;;9.00;99.90;;;;;;5028865;28;20210;-72
2022/04/06 03:05:48;;;;;;;11.80;10.67;;;9.00;99.90;;;;;;5028892;28;20235;-71
2022/04/06 03:08:16;;;;;;;13.23;11.93;;;9.00;99.90;;;;;;5028949;28;20233;-72
2022/04/06 03:10:42;;;;;;;13.10;11.70;;;9.00;99.90;;;;;;5028547;28;20693;-72
2022/04/06 03:13:10;;;;;;;12.27;11.07;;;9.10;99.90;;;;;;5028624;28;20255;-71
2022/04/06 03:15:37;;;;;;;12.30;11.00;;;9.10;99.90;;;;;;5019758;28;20670;-72
2022/04/06 03:18:04;;;;;;;11.30;10.20;;;9.00;99.90;;;;;;5037424;28;20208;-72
2022/04/06 03:20:33;;;;;;;11.67;10.67;;;9.00;99.90;;;;;;5046463;28;20696;-72
2022/04/06 03:22:59;;;;;;;10.87;9.87;;;9.00;99.90;;;;;;5041113;28;20216;-72
2022/04/06 03:25:26;;;;;;;10.97;9.93;;;9.00;99.90;;;;;;5026952;28;20255;-72
2022/04/06 03:27:53;;;;;;;11.30;10.20;;;9.10;99.90;;;;;;5026243;28;20761;-72
2022/04/06 03:30:20;;;;;;;11.27;10.27;;;9.00;99.90;;;;;;5026866;28;20217;-72
2022/04/06 03:32:46;;;;;;;11.30;10.10;;;9.00;99.90;;;;;;5026578;28;20208;-71
2022/04/06 03:35:13;;;;;;;11.77;10.67;;;9.10;99.90;;;;;;5026269;28;20710;-72
2022/04/06 03:37:42;;;;;;;10.10;9.20;;;9.10;99.90;;;;;;5026526;28;20580;-72
2022/04/06 03:40:10;;;;;;;10.03;8.83;;;9.00;99.90;;;;;;5025761;28;20763;-72
2022/04/06 03:42:36;;;;;;;9.90;8.73;;;9.00;99.90;;;;;;5026397;28;20208;-72
2022/04/06 03:45:04;;;;;;;10.53;9.40;;;9.00;99.90;;;;;;5025894;28;20731;-72
2022/04/06 03:47:32;;;;;;;10.53;9.53;;;9.00;99.90;;;;;;5026045;28;20232;-72
2022/04/06 03:49:59;;;;;;;9.50;8.60;;;8.90;99.90;;;;;;5025641;28;20205;-72
2022/04/06 03:52:26;;;;;;;9.27;8.47;;;9.00;99.90;;;;;;5021041;28;20296;-72
2022/04/06 03:54:55;;;;;;;9.43;8.57;;;8.90;99.90;;;;;;5006216;28;20206;-72
2022/04/06 03:57:22;;;;;;;9.57;8.60;;;8.90;99.90;;;;;;5006306;28;20268;-72
2022/04/06 03:59:49;;;;;;;9.10;8.30;;;8.90;99.90;;;;;;5027158;28;20204;-74
2022/04/06 04:02:15;;;;;;;9.10;8.20;;;8.90;99.90;;;;;;5026897;28;20204;-72
2022/04/06 04:04:42;;;;;;;11.33;8.50;;;8.90;99.90;;;;;;5027026;28;20255;-72
2022/04/06 04:07:09;;;;;;;9.13;8.27;;;8.90;99.90;;;;;;5026688;28;20326;-71
2022/04/06 04:09:36;;;;;;;9.60;8.37;;;9.00;99.90;;;;;;5027061;28;20213;-71
2022/04/06 04:12:05;;;;;;;10.03;8.67;;;8.90;99.90;;;;;;5026402;28;20205;-71
2022/04/06 04:14:34;;;;;;;9.27;8.07;;;9.00;99.90;;;;;;5024297;28;20315;-72
2022/04/06 04:17:00;;;;;;;9.40;8.47;;;8.90;99.90;;;;;;5028938;28;20291;-71
2022/04/06 04:19:27;;;;;;;9.70;8.70;;;9.00;99.90;;;;;;5027003;28;20233;-72
2022/04/06 04:21:54;;;;;;;9.60;8.63;;;9.00;99.90;;;;;;5026994;28;20266;-72
2022/04/06 04:24:20;;;;;;;9.20;8.30;;;8.90;99.90;;;;;;5027002;28;20201;-72
2022/04/06 04:26:47;;;;;;;11.33;10.23;;;8.90;99.90;;;;;;5026500;28;20983;-72
2022/04/06 04:29:17;;;;;;;9.40;8.60;;;8.90;99.90;;;;;;5026680;28;20225;-72
2022/04/06 04:31:44;;;;;;;9.57;8.67;;;8.90;99.90;;;;;;5026856;28;20205;-72
2022/04/06 04:34:11;;;;;;;11.50;10.40;;;8.90;99.90;;;;;;5026704;28;20220;-72
2022/04/06 04:36:38;;;;;;;10.67;9.67;;;8.90;99.90;;;;;;5026530;28;20201;-72
2022/04/06 04:39:05;;;;;;;11.67;9.50;;;9.00;99.90;;;;;;5026753;28;20213;-72
2022/04/06 04:41:32;;;;;;;10.50;9.40;;;9.00;99.90;;;;;;5026802;28;20193;-72
2022/04/06 04:43:59;;;;;;;10.60;9.53;;;8.90;99.90;;;;;;5026670;28;20197;-72
2022/04/06 04:46:27;;;;;;;11.20;9.97;;;8.90;99.90;;;;;;5026908;28;20209;-73
2022/04/06 04:48:54;;;;;;;11.37;9.87;;;8.90;99.90;;;;;;5026161;28;20773;-72
2022/04/06 04:51:20;;;;;;;12.93;10.37;;;8.90;99.90;;;;;;5026768;28;20197;-72
2022/04/06 04:53:47;;;;;;;11.53;10.27;;;8.90;99.90;;;;;;5026291;28;20205;-72
2022/04/06 04:56:15;;;;;;;11.37;9.80;;;9.00;99.90;;;;;;5026116;28;20204;-72
2022/04/06 04:58:42;;;;;;;12.53;10.73;;;8.90;99.90;;;;;;5026997;28;20201;-72
2022/04/06 05:01:08;;;;;;;11.27;9.83;;;8.90;99.90;;;;;;5026038;28;20664;-72
2022/04/06 05:03:36;;;;;;;11.53;9.97;;;8.90;99.90;;;;;;5026460;28;20561;-72
2022/04/06 05:06:06;;;;;;;11.80;10.57;;;8.90;99.90;;;;;;5026237;28;20429;-72
2022/04/06 05:08:32;;;;;;;11.23;10.13;;;8.90;99.90;;;;;;5028336;28;20239;-72
2022/04/06 05:10:59;;;;;;;14.67;10.30;;;8.80;99.90;;;;;;5029884;28;20609;-72
2022/04/06 05:13:26;;;;;;;11.00;9.90;;;8.90;99.90;;;;;;5030027;28;20201;-72
2022/04/06 05:15:52;;;;;;;11.77;10.57;;;8.90;99.90;;;;;;5029398;28;20745;-72
2022/04/06 05:18:19;;;;;;;11.00;9.90;;;8.90;99.90;;;;;;5029718;28;20205;-72
2022/04/06 05:20:47;;;;;;;13.17;11.43;;;8.90;99.90;;;;;;5029234;28;20228;-72
2022/04/06 05:23:15;;;;;;;12.50;10.50;;;8.90;99.90;;;;;;5029694;28;20251;-72
2022/04/06 05:25:41;;;;;;;11.60;10.17;;;8.90;99.90;;;;;;5029592;28;20280;-72
2022/04/06 05:28:09;;;;;;;11.53;10.43;;;8.90;99.90;;;;;;5028983;28;20228;-72
2022/04/06 05:30:38;;;;;;;10.90;9.93;;;8.90;99.90;;;;;;5029286;28;20224;-72
2022/04/06 05:33:05;;;;;;;11.93;9.80;;;8.90;99.90;;;;;;5027472;28;20572;-72
2022/04/06 05:35:31;;;;;;;13.70;10.10;;;8.90;99.90;;;;;;5029743;28;20221;-72
2022/04/06 05:37:59;;;;;;;12.33;10.13;;;8.90;99.90;;;;;;5027852;28;20200;-72
2022/04/06 05:40:27;;;;;;;11.40;10.07;;;9.00;99.90;;;;;;5029598;28;20562;-72
2022/04/06 05:42:53;;;;;;;11.23;9.37;;;9.00;99.90;;;;;;5029344;28;20636;-72
2022/04/06 05:45:20;;;;;;;13.57;9.87;;;9.00;99.90;;;;;;5028878;28;20201;-72
2022/04/06 05:47:47;;;;;;;10.40;9.40;;;9.00;99.90;;;;;;5028764;28;20204;-72
2022/04/06 05:50:15;;;;;;;10.13;9.00;;;9.00;99.90;;;;;;5029355;28;20283;-72
2022/04/06 05:52:42;;;;;;;10.57;9.57;;;9.00;99.90;;;;;;5029035;28;20204;-72
2022/04/06 05:55:11;;;;;;;10.17;9.27;;;8.90;99.90;;;;;;5028568;28;20327;-72
2022/04/06 05:57:38;;;;;;;11.13;9.47;;;9.00;99.90;;;;;;5028006;28;20290;-72
2022/04/06 06:00:08;;;;;;;11.30;10.03;;;9.00;99.90;;;;;;5027930;28;21718;-72
2022/04/06 06:02:34;;;;;;;11.10;10.07;;;9.00;99.90;;;;;;5027044;28;20205;-72
2022/04/06 06:05:01;;;;;;;12.90;10.17;;;8.90;99.90;;;;;;5028764;28;20197;-72
2022/04/06 06:07:28;;;;;;;10.67;9.63;;;9.00;99.90;;;;;;5029530;28;20628;-72
2022/04/06 06:09:54;;;;;;;12.00;10.73;;;9.00;99.90;;;;;;5028570;28;20233;-72
2022/04/06 06:12:22;;;;;;;11.97;10.73;;;8.90;99.90;;;;;;5028977;28;20220;-72
2022/04/06 06:14:49;;;;;;;13.13;11.83;;;8.90;99.90;;;;;;5028890;28;20619;-72
2022/04/06 06:17:16;;;;;;;16.50;12.13;;;8.90;99.90;;;;;;5032842;28;20200;-72
2022/04/06 06:19:43;;;;;;;19.40;13.23;;;8.90;99.90;;;;;;5038964;28;20237;-72
2022/04/06 06:22:09;;;;;;;14.90;12.87;;;8.90;99.90;;;;;;5029123;28;20602;-72
2022/04/06 06:24:36;;;;;;;14.37;11.97;;;8.90;99.90;;;;;;5029513;28;20371;-72
2022/04/06 06:27:04;;;;;;;17.80;13.57;;;8.90;99.90;;;;;;5029803;28;20655;-72
2022/04/06 06:29:32;;;;;;;15.50;12.93;;;8.90;99.90;;;;;;5028718;28;20315;-72
2022/04/06 06:31:59;;;;;;;15.80;13.20;;;8.90;99.90;;;;;;5028991;28;20205;-72
2022/04/06 06:34:25;;;;;;;16.67;13.83;;;9.00;99.90;;;;;;5029270;28;20236;-71
2022/04/06 06:36:52;;;;;;;16.97;14.03;;;9.00;99.90;;;;;;5028929;28;20209;-71
2022/04/06 06:39:19;;;;;;;16.83;13.80;;;9.10;99.90;;;;;;5029149;28;20209;-72
2022/04/06 06:41:46;;;;;;;19.00;14.43;;;9.20;99.90;;;;;;5029125;28;20208;-72
2022/04/06 06:44:13;;;;;;;19.00;15.50;;;9.20;99.90;;;;;;5029319;28;20215;-72
2022/04/06 06:46:41;;;;;;;20.60;16.10;;;9.30;99.90;;;;;;5028711;28;20686;-72
2022/04/06 06:49:08;;;;;;;19.30;14.67;;;9.40;99.90;;;;;;5028599;28;20224;-72
2022/04/06 06:51:35;;;;;;;16.97;15.23;;;9.40;99.90;;;;;;5029040;28;20205;-72
2022/04/06 06:54:02;;;;;;;19.30;15.53;;;9.40;99.90;;;;;;5025045;28;20204;-72
2022/04/06 06:56:28;;;;;;;21.40;15.93;;;9.40;99.90;;;;;;5028778;28;20208;-72
2022/04/06 06:58:55;;;;;;;23.47;16.20;;;9.40;99.90;;;;;;5027948;28;20197;-72
2022/04/06 07:01:25;;;;;;;21.03;16.83;;;9.40;99.90;;;;;;5028841;28;20259;-71
2022/04/06 07:03:53;;;;;;;19.53;15.83;;;9.50;99.90;;;;;;5028177;28;20635;-71
2022/04/06 07:06:19;;;;;;;19.07;15.23;;;9.50;99.90;;;;;;5028774;28;20212;-71
2022/04/06 07:08:46;;;;;;;16.97;15.20;;;9.50;99.90;;;;;;5028436;28;20693;-71
2022/04/06 07:11:13;;;;;;;21.37;16.33;;;9.50;99.90;;;;;;5028520;28;20204;-71
2022/04/06 07:13:39;;;;;;;22.43;15.47;;;9.50;99.90;;;;;;5028965;28;20285;-71
2022/04/06 07:16:06;;;;;;;22.67;16.67;;;9.60;99.90;;;;;;5028203;28;20207;-71
2022/04/06 07:18:33;;;;;;;22.60;15.07;;;9.60;99.90;;;;;;5031022;28;20589;-72
2022/04/06 07:21:05;;;;;;;16.70;14.20;;;9.60;99.90;;;;;;5027792;28;20778;-71
2022/04/06 07:23:32;;;;;;;21.03;14.30;;;9.70;99.90;;;;;;5027711;28;20663;-71
2022/04/06 07:25:58;;;;;;;19.97;14.27;;;9.70;99.90;;;;;;5008942;28;20263;-71
2022/04/06 07:28:25;;;;;;;18.77;14.57;;;9.70;99.90;;;;;;5021454;28;20232;-71
2022/04/06 07:30:52;;;;;;;16.30;12.70;;;9.80;99.90;;;;;;5027611;28;20209;-71
2022/04/06 07:33:19;;;;;;;21.23;13.87;;;9.90;99.90;;;;;;5028140;28;20224;-71
2022/04/06 07:35:46;;;;;;;20.07;12.70;;;9.90;99.90;;;;;;5028245;28;20306;-71
2022/04/06 07:38:14;;;;;;;16.20;13.53;;;9.90;99.90;;;;;;5028323;28;20835;-71
2022/04/06 07:40:41;;;;;;;19.57;12.80;;;9.90;99.90;;;;;;5027939;28;20203;-71
2022/04/06 07:43:08;;;;;;;14.23;11.60;;;10.00;99.90;;;;;;5025090;28;20259;-70
2022/04/06 07:45:35;;;;;;;13.73;12.10;;;10.10;99.90;;;;;;5027952;28;20315;-71
2022/04/06 07:48:04;;;;;;;13.13;11.67;;;10.20;99.90;;;;;;5027919;28;20212;-71
2022/04/06 07:50:30;;;;;;;13.37;11.23;;;10.20;99.90;;;;;;5027449;28;20239;-71
2022/04/06 07:52:57;;;;;;;15.87;11.30;;;10.30;99.90;;;;;;5023420;28;20264;-72
2022/04/06 07:55:25;;;;;;;15.23;10.77;;;10.40;99.90;;;;;;5028195;28;20216;-72
2022/04/06 07:57:52;;;;;;;13.87;9.87;;;10.40;99.90;;;;;;5027988;28;20618;-72
2022/04/06 08:00:18;;;;;;;11.67;10.57;;;10.50;99.90;;;;;;5027859;28;20204;-72
2022/04/06 08:02:46;;;;;;;13.70;9.70;;;10.60;99.90;;;;;;5027428;28;20676;-71
2022/04/06 08:05:13;;;;;;;11.83;10.00;;;10.70;99.90;;;;;;5027401;28;20209;-71
2022/04/06 08:07:43;;;;;;;10.87;8.93;;;10.80;99.90;;;;;;5027950;28;20251;-71
2022/04/06 08:10:11;;;;;;;11.30;8.70;;;10.80;99.90;;;;;;5025305;28;20209;-71
2022/04/06 08:12:39;;;;;;;9.30;8.33;;;10.90;99.90;;;;;;5026165;28;20205;-71
2022/04/06 08:15:07;;;;;;;9.17;8.23;;;10.90;99.90;;;;;;5026211;28;20235;-71
2022/04/06 08:17:34;;;;;;;10.30;8.20;;;10.90;99.90;;;;;;5026075;28;20251;-71
2022/04/06 08:20:02;;;;;;;10.90;8.43;;;11.00;99.90;;;;;;5024405;28;20252;-71
2022/04/06 08:22:29;;;;;;;8.73;7.23;;;11.00;99.90;;;;;;5026796;28;20238;-71
2022/04/06 08:24:56;;;;;;;10.40;8.17;;;11.00;99.90;;;;;;5027268;28;20250;-71
2022/04/06 08:27:23;;;;;;;9.17;7.47;;;11.00;99.90;;;;;;5026853;28;20204;-71
2022/04/06 08:29:51;;;;;;;8.90;7.30;;;11.10;99.90;;;;;;5026231;28;20228;-71
2022/04/06 08:32:18;;;;;;;7.97;6.83;;;11.00;99.90;;;;;;5027010;28;20255;-71
2022/04/06 08:34:44;;;;;;;8.90;7.57;;;10.90;99.90;;;;;;5026317;28;20735;-71
2022/04/06 08:37:11;;;;;;;9.63;7.60;;;10.90;99.90;;;;;;5026629;28;20278;-71
2022/04/06 08:39:38;;;;;;;11.30;7.90;;;10.80;99.90;;;;;;5026942;28;20201;-71
2022/04/06 08:42:05;;;;;;;7.83;7.03;;;10.80;99.90;;;;;;5027118;28;20209;-71
2022/04/06 08:44:32;;;;;;;8.83;7.03;;;10.90;99.90;;;;;;5030245;28;20201;-71
2022/04/06 08:47:05;;;;;;;11.13;6.83;;;10.80;99.90;;;;;;5027841;28;20659;-71
2022/04/06 08:49:32;;;;;;;6.93;6.23;;;10.90;99.90;;;;;;5030697;28;20270;-71
2022/04/06 08:52:01;;;;;;;7.43;6.73;;;10.90;99.90;;;;;;5029506;28;20733;-71
2022/04/06 08:54:27;;;;;;;8.73;6.43;;;10.90;99.90;;;;;;5033967;28;20216;-71
2022/04/06 08:56:55;;;;;;;6.37;5.77;;;11.00;99.90;;;;;;5031034;28;20600;-71
2022/04/06 08:59:22;;;;;;;10.13;6.33;;;11.10;99.90;;;;;;5029939;28;20208;-71
2022/04/06 09:01:48;;;;;;;8.07;6.10;;;11.20;99.90;;;;;;5030110;28;20212;-71
2022/04/06 09:04:19;;;;;;;7.50;6.27;;;11.20;99.90;;;;;;5030350;28;20286;-71
2022/04/06 09:06:47;;;;;;;8.10;6.43;;;11.30;99.90;;;;;;5029853;28;20204;-71
2022/04/06 09:09:21;;;;;;;8.93;6.07;;;11.30;99.90;;;;;;5029397;28;20240;-71
2022/04/06 09:11:48;;;;;;;6.87;5.87;;;11.30;99.90;;;;;;5028349;28;20211;-71
2022/04/06 09:14:14;;;;;;;7.97;5.73;;;11.30;99.90;;;;;;5029694;28;20580;-71
2022/04/06 09:16:41;;;;;;;8.67;6.50;;;11.40;99.90;;;;;;5029327;28;20221;-71
2022/04/06 09:19:10;;;;;;;7.67;6.47;;;11.30;99.90;;;;;;5030476;28;20569;-71
2022/04/06 09:21:42;;;;;;;7.10;6.03;;;11.40;99.90;;;;;;5029365;28;20193;-71
2022/04/06 09:24:15;;;;;;;8.83;6.17;;;11.50;99.90;;;;;;5029684;28;20201;-71
2022/04/06 09:26:42;;;;;;;7.50;5.90;;;11.50;99.90;;;;;;5024447;28;20196;-71
2022/04/06 09:29:12;;;;;;;6.33;5.73;;;11.50;99.90;;;;;;5029135;28;20627;-71
2022/04/06 09:31:40;;;;;;;7.20;6.13;;;11.60;99.90;;;;;;5029779;28;20221;-71
2022/04/06 09:34:11;;;;;;;7.60;6.00;;;11.60;99.90;;;;;;5029492;28;20711;-71
2022/04/06 09:36:39;;;;;;;7.53;6.70;;;11.50;99.90;;;;;;5029568;28;20290;-71
2022/04/06 09:39:07;;;;;;;8.07;6.17;;;11.50;99.90;;;;;;5029895;28;20208;-71
2022/04/06 09:41:34;;;;;;;7.70;6.30;;;11.60;99.90;;;;;;5029656;28;20686;-71
2022/04/06 09:44:08;;;;;;;6.33;5.77;;;11.50;99.90;;;;;;5029094;28;20750;-71
2022/04/06 09:49:21;;;;;;;8.13;6.70;;;11.50;99.90;;;;;;5026293;28;20224;-71
2022/04/06 09:51:50;;;;;;;6.80;6.20;;;11.50;99.90;;;;;;5028905;28;20668;-71
2022/04/06 09:54:18;;;;;;;10.70;6.37;;;11.50;99.90;;;;;;5029354;28;20220;-71
2022/04/06 09:56:45;;;;;;;8.47;7.17;;;11.60;99.90;;;;;;5029374;28;20570;-71
2022/04/06 09:59:14;;;;;;;7.10;6.40;;;11.60;99.90;;;;;;5029034;28;20220;-71
2022/04/06 10:01:45;;;;;;;7.43;6.07;;;11.70;99.90;;;;;;5027044;28;20208;-71
2022/04/06 10:04:13;;;;;;;8.37;6.70;;;11.70;99.90;;;;;;5028775;28;20220;-71
2022/04/06 10:06:41;;;;;;;10.13;6.83;;;11.70;99.90;;;;;;5025654;28;20721;-71
2022/04/06 10:09:10;;;;;;;8.47;6.37;;;11.80;99.90;;;;;;5028651;28;20255;-71
2022/04/06 10:11:38;;;;;;;7.20;6.60;;;11.80;99.90;;;;;;5028618;28;20205;-71
2022/04/06 10:14:06;;;;;;;9.20;6.67;;;11.80;99.90;;;;;;5028333;28;20263;-71
2022/04/06 10:16:34;;;;;;;9.87;6.33;;;11.70;99.90;;;;;;5029123;28;20201;-70
2022/04/06 10:19:02;;;;;;;7.23;6.63;;;11.70;99.90;;;;;;5028552;28;20208;-70
2022/04/06 10:21:37;;;;;;;8.53;6.77;;;11.70;99.90;;;;;;5028262;28;20212;-71
2022/04/06 10:24:22;;;;;;;7.97;6.93;;;11.70;99.90;;;;;;5028299;28;20246;-71
2022/04/06 10:27:00;;;;;;;8.50;6.23;;;11.70;99.90;;;;;;5028229;28;20189;-71
2022/04/06 10:29:27;;;;;;;6.70;6.10;;;11.70;99.90;;;;;;5024045;28;20248;-71
2022/04/06 10:31:54;;;;;;;6.67;6.00;;;11.70;99.90;;;;;;5027523;28;20210;-71
2022/04/06 10:34:24;;;;;;;7.30;6.20;;;11.80;99.90;;;;;;5027895;28;20719;-70
2022/04/06 10:37:06;;;;;;;10.67;6.37;;;11.80;99.90;;;;;;5027814;28;20201;-71
2022/04/06 10:39:54;;;;;;;6.60;5.90;;;11.90;99.90;;;;;;5026106;28;20212;-71
2022/04/06 10:42:30;;;;;;;7.63;5.60;;;12.00;99.90;;;;;;5025235;28;20201;-71
2022/04/06 10:44:57;;;;;;;8.47;6.10;;;12.20;99.90;;;;;;5027887;28;20254;-70
2022/04/06 10:47:24;;;;;;;6.03;5.40;;;12.30;99.90;;;;;;5028111;28;20216;-71
2022/04/06 10:50:24;;;;;;;8.17;5.60;;;12.30;99.90;;;;;;5027637;28;20703;-71
2022/04/06 10:52:52;;;;;;;8.17;5.63;;;12.20;99.90;;;;;;5027210;28;20193;-71
2022/04/06 10:55:24;;;;;;;7.00;6.10;;;12.20;99.90;;;;;;5028171;28;20296;-71
2022/04/06 10:57:58;;;;;;;8.97;6.00;;;12.00;99.90;;;;;;5026415;28;20226;-71
2022/04/06 11:00:26;;;;;;;6.97;6.03;;;12.00;99.90;;;;;;5027822;28;20250;-71
2022/04/06 11:02:54;;;;;;;8.10;5.70;;;11.90;99.90;;;;;;5027877;28;20193;-71
2022/04/06 11:05:44;;;;;;;7.83;5.73;;;11.80;99.90;;;;;;5027419;28;20216;-71
2022/04/06 11:11:28;;;;;;;7.57;5.90;;;11.70;99.90;;;;;;5026300;28;20709;-71
2022/04/06 11:13:57;;;;;;;8.70;6.60;;;11.70;99.90;;;;;;5025462;28;20627;-71
2022/04/06 11:16:43;;;;;;;6.63;6.03;;;11.70;99.90;;;;;;5027664;28;20205;-71
2022/04/06 11:19:10;;;;;;;7.90;5.87;;;11.70;99.90;;;;;;5025092;28;20197;-70
2022/04/06 11:21:47;;;;;;;6.50;5.90;;;11.70;99.90;;;;;;5027776;28;20212;-71
2022/04/06 11:24:21;;;;;;;6.40;5.80;;;11.70;99.90;;;;;;5025983;28;20201;-71
2022/04/06 11:26:48;;;;;;;8.20;6.10;;;11.70;99.90;;;;;;5025338;28;20190;-71
2022/04/06 11:29:16;;;;;;;6.63;5.87;;;11.60;99.90;;;;;;5027171;28;20205;-71
2022/04/06 11:31:54;;;;;;;8.00;5.80;;;11.70;99.90;;;;;;5027109;28;20205;-70
2022/04/06 11:34:32;;;;;;;6.20;5.50;;;11.60;99.90;;;;;;5026181;28;20264;-71
2022/04/06 11:36:59;;;;;;;6.30;5.70;;;11.60;99.90;;;;;;5026439;28;20930;-71
2022/04/06 11:39:26;;;;;;;6.33;5.70;;;11.50;99.90;;;;;;5027303;28;20359;-71
2022/04/06 11:41:52;;;;;;;6.33;5.73;;;11.50;99.90;;;;;;5027109;28;20196;-71
2022/04/06 11:44:24;;;;;;;8.03;6.57;;;11.50;99.90;;;;;;5028820;28;20209;-71
2022/04/06 11:46:51;;;;;;;7.27;6.67;;;11.50;99.90;;;;;;5024828;28;20197;-71
2022/04/06 11:49:21;;;;;;;7.00;5.87;;;11.40;99.90;;;;;;5027516;28;20208;-71
2022/04/06 11:51:48;;;;;;;8.87;6.47;;;11.40;99.90;;;;;;5024384;28;20227;-71
2022/04/06 11:54:16;;;;;;;6.80;6.20;;;11.40;99.90;;;;;;5026660;28;20263;-71
2022/04/06 11:56:43;;;;;;;9.00;6.73;;;11.40;99.90;;;;;;5026545;28;20251;-71
2022/04/06 11:59:14;;;;;;;7.33;5.87;;;11.40;99.90;;;;;;5026564;28;20212;-71
2022/04/06 12:01:46;;;;;;;6.33;5.73;;;11.30;99.90;;;;;;5026539;28;20205;-71
2022/04/06 12:04:14;;;;;;;6.57;5.60;;;11.30;99.90;;;;;;5027600;28;20251;-71
2022/04/06 12:06:41;;;;;;;5.73;5.10;;;11.30;99.90;;;;;;5027183;28;20578;-71
2022/04/06 12:09:08;;;;;;;5.97;5.47;;;11.30;99.90;;;;;;5027307;28;20250;-71
2022/04/06 12:11:35;;;;;;;6.37;5.50;;;11.30;99.90;;;;;;5027542;28;20228;-72
2022/04/06 12:14:02;;;;;;;7.97;5.90;;;11.30;99.90;;;;;;5026786;28;20201;-71
2022/04/06 12:16:29;;;;;;;8.13;5.30;;;11.30;99.90;;;;;;5027277;28;20193;-71
2022/04/06 12:18:57;;;;;;;7.23;5.50;;;11.20;99.90;;;;;;5032550;28;20201;-71
2022/04/06 12:21:26;;;;;;;7.13;5.90;;;11.30;99.90;;;;;;5026827;28;20212;-71
2022/04/06 12:23:54;;;;;;;6.30;5.50;;;11.30;99.90;;;;;;5026370;28;20201;-72
2022/04/06 12:26:21;;;;;;;6.37;5.63;;;11.30;99.90;;;;;;5029586;28;20204;-72
2022/04/06 12:28:49;;;;;;;6.03;5.50;;;11.30;99.90;;;;;;5029365;28;20367;-72
2022/04/06 12:31:15;;;;;;;6.13;5.53;;;11.30;99.90;;;;;;5028921;28;20327;-71
2022/04/06 12:33:44;;;;;;;5.90;5.40;;;11.30;99.90;;;;;;5028733;28;20220;-71
2022/04/06 12:36:17;;;;;;;5.77;5.37;;;11.30;99.90;;;;;;5028647;28;20294;-71
2022/04/06 12:38:56;;;;;;;5.43;5.00;;;11.30;99.90;;;;;;5025391;28;20266;-71
2022/04/06 12:41:25;;;;;;;5.10;4.50;;;11.40;99.90;;;;;;5036985;28;20305;-71
2022/04/06 12:43:52;;;;;;;5.60;4.60;;;11.50;99.90;;;;;;5025962;28;20692;-71
2022/04/06 12:46:39;;;;;;;5.90;5.30;;;11.60;99.90;;;;;;5028547;28;20216;-71
2022/04/06 12:49:29;;;;;;;4.93;4.47;;;11.80;99.90;;;;;;5028043;28;20201;-71
2022/04/06 12:52:09;;;;;;;5.87;4.57;;;12.20;99.90;;;;;;5026664;28;20290;-71
2022/04/06 12:54:37;;;;;;;6.13;4.37;;;12.20;99.90;;;;;;5026919;28;20196;-72
2022/04/06 12:57:09;;;;;;;4.37;3.97;;;12.30;99.90;;;;;;5028771;28;20209;-72